sensor_id;sensor_type;location;lat;lon;timestamp;P1;durP1;ratioP1;P2;durP2;ratioP2
15667;SDS011;7934;48.710;9.024;2022-10-10T00:02:23;7.90;;;6.47;;
15667;SDS011;7934;48.710;9.024;2022-10-10T00:04:50;7.40;;;6.63;;
15667;SDS011;7934;48.710;9.024;2022-10-10T00:07:18;7.63;;;6.27;;
15667;SDS011;7934;48.710;9.024;2022-10-10T00:09:45;12.97;;;7.03;;
15667;SDS011;7934;48.710;9.024;2022-10-10T00:12:12;8.60;;;6.20;;
15667;SDS011;7934;48.710;9.024;2022-10-10T00:14:40;6.07;;;5.57;;
15667;SDS011;7934;48.710;9.024;2022-10-10T00:17:07;6.70;;;6.10;;
15667;SDS011;7934;48.710;9.024;2022-10-10T00:19:36;7.10;;;6.23;;
15667;SDS011;7934;48.710;9.024;2022-10-10T00:22:03;7.37;;;5.87;;
15667;SDS011;7934;48.710;9.024;2022-10-10T00:24:31;7.20;;;5.87;;
15667;SDS011;7934;48.710;9.024;2022-10-10T00:26:58;6.87;;;6.27;;
15667;SDS011;7934;48.710;9.024;2022-10-10T00:29:25;8.80;;;6.90;;
15667;SDS011;7934;48.710;9.024;2022-10-10T00:31:52;7.00;;;6.30;;
15667;SDS011;7934;48.710;9.024;2022-10-10T00:34:20;6.47;;;5.67;;
15667;SDS011;7934;48.710;9.024;2022-10-10T00:36:48;9.17;;;6.10;;
15667;SDS011;7934;48.710;9.024;2022-10-10T00:39:16;8.53;;;7.03;;
15667;SDS011;7934;48.710;9.024;2022-10-10T00:41:43;7.43;;;6.43;;
15667;SDS011;7934;48.710;9.024;2022-10-10T00:44:11;7.97;;;6.03;;
15667;SDS011;7934;48.710;9.024;2022-10-10T00:46:38;8.20;;;6.43;;
15667;SDS011;7934;48.710;9.024;2022-10-10T00:49:08;12.43;;;6.53;;
15667;SDS011;7934;48.710;9.024;2022-10-10T00:51:40;6.20;;;5.67;;
15667;SDS011;7934;48.710;9.024;2022-10-10T00:54:09;7.47;;;6.60;;
15667;SDS011;7934;48.710;9.024;2022-10-10T00:56:39;8.63;;;6.23;;
15667;SDS011;7934;48.710;9.024;2022-10-10T00:59:09;6.03;;;5.53;;
15667;SDS011;7934;48.710;9.024;2022-10-10T01:01:37;6.73;;;6.03;;
15667;SDS011;7934;48.710;9.024;2022-10-10T01:04:04;9.53;;;6.50;;
15667;SDS011;7934;48.710;9.024;2022-10-10T01:06:32;8.07;;;6.07;;
15667;SDS011;7934;48.710;9.024;2022-10-10T01:08:59;13.03;;;6.37;;
15667;SDS011;7934;48.710;9.024;2022-10-10T01:11:36;8.03;;;5.87;;
15667;SDS011;7934;48.710;9.024;2022-10-10T01:14:07;6.87;;;6.03;;
15667;SDS011;7934;48.710;9.024;2022-10-10T01:16:38;10.33;;;6.00;;
15667;SDS011;7934;48.710;9.024;2022-10-10T01:19:09;6.57;;;5.73;;
15667;SDS011;7934;48.710;9.024;2022-10-10T01:21:41;11.60;;;7.53;;
15667;SDS011;7934;48.710;9.024;2022-10-10T01:24:20;10.00;;;7.13;;
15667;SDS011;7934;48.710;9.024;2022-10-10T01:29:38;11.87;;;7.33;;
15667;SDS011;7934;48.710;9.024;2022-10-10T01:32:10;7.03;;;6.07;;
15667;SDS011;7934;48.710;9.024;2022-10-10T01:34:39;7.63;;;6.17;;
15667;SDS011;7934;48.710;9.024;2022-10-10T01:37:09;6.50;;;5.90;;
15667;SDS011;7934;48.710;9.024;2022-10-10T01:39:38;10.23;;;6.80;;
15667;SDS011;7934;48.710;9.024;2022-10-10T01:42:08;8.37;;;6.63;;
15667;SDS011;7934;48.710;9.024;2022-10-10T01:44:38;9.67;;;6.30;;
15667;SDS011;7934;48.710;9.024;2022-10-10T01:47:09;9.43;;;5.50;;
15667;SDS011;7934;48.710;9.024;2022-10-10T01:49:36;7.33;;;6.57;;
15667;SDS011;7934;48.710;9.024;2022-10-10T01:52:14;7.63;;;6.23;;
15667;SDS011;7934;48.710;9.024;2022-10-10T01:54:46;6.93;;;5.63;;
15667;SDS011;7934;48.710;9.024;2022-10-10T01:57:18;9.30;;;6.20;;
15667;SDS011;7934;48.710;9.024;2022-10-10T01:59:51;8.77;;;6.20;;
15667;SDS011;7934;48.710;9.024;2022-10-10T02:02:22;7.20;;;6.27;;
15667;SDS011;7934;48.710;9.024;2022-10-10T02:04:51;6.37;;;5.83;;
15667;SDS011;7934;48.710;9.024;2022-10-10T02:07:20;11.20;;;6.07;;
15667;SDS011;7934;48.710;9.024;2022-10-10T02:09:49;8.50;;;5.73;;
15667;SDS011;7934;48.710;9.024;2022-10-10T02:12:18;7.80;;;6.50;;
15667;SDS011;7934;48.710;9.024;2022-10-10T02:14:46;7.17;;;5.60;;
15667;SDS011;7934;48.710;9.024;2022-10-10T02:17:17;7.03;;;6.30;;
15667;SDS011;7934;48.710;9.024;2022-10-10T02:19:45;7.00;;;6.30;;
15667;SDS011;7934;48.710;9.024;2022-10-10T02:22:13;6.30;;;5.70;;
15667;SDS011;7934;48.710;9.024;2022-10-10T02:24:40;7.57;;;5.90;;
15667;SDS011;7934;48.710;9.024;2022-10-10T02:27:10;6.87;;;6.27;;
15667;SDS011;7934;48.710;9.024;2022-10-10T02:29:39;9.30;;;6.80;;
15667;SDS011;7934;48.710;9.024;2022-10-10T02:32:09;8.37;;;6.97;;
15667;SDS011;7934;48.710;9.024;2022-10-10T02:34:42;7.60;;;6.80;;
15667;SDS011;7934;48.710;9.024;2022-10-10T02:37:12;7.47;;;6.73;;
15667;SDS011;7934;48.710;9.024;2022-10-10T02:39:41;12.27;;;6.93;;
15667;SDS011;7934;48.710;9.024;2022-10-10T02:42:11;8.53;;;6.97;;
15667;SDS011;7934;48.710;9.024;2022-10-10T02:44:39;8.33;;;6.67;;
15667;SDS011;7934;48.710;9.024;2022-10-10T02:47:07;9.20;;;7.00;;
15667;SDS011;7934;48.710;9.024;2022-10-10T02:49:34;7.97;;;6.60;;
15667;SDS011;7934;48.710;9.024;2022-10-10T02:52:03;9.30;;;6.30;;
15667;SDS011;7934;48.710;9.024;2022-10-10T02:54:30;8.43;;;6.93;;
15667;SDS011;7934;48.710;9.024;2022-10-10T02:56:57;12.67;;;6.73;;
15667;SDS011;7934;48.710;9.024;2022-10-10T02:59:28;10.87;;;7.17;;
15667;SDS011;7934;48.710;9.024;2022-10-10T03:01:55;8.73;;;7.17;;
15667;SDS011;7934;48.710;9.024;2022-10-10T03:04:22;11.07;;;7.20;;
15667;SDS011;7934;48.710;9.024;2022-10-10T03:06:50;11.50;;;7.57;;
15667;SDS011;7934;48.710;9.024;2022-10-10T03:09:19;12.10;;;7.67;;
15667;SDS011;7934;48.710;9.024;2022-10-10T03:11:46;11.23;;;6.73;;
15667;SDS011;7934;48.710;9.024;2022-10-10T03:14:14;12.40;;;7.33;;
15667;SDS011;7934;48.710;9.024;2022-10-10T03:16:43;12.07;;;7.40;;
15667;SDS011;7934;48.710;9.024;2022-10-10T03:19:12;9.40;;;7.13;;
15667;SDS011;7934;48.710;9.024;2022-10-10T03:21:39;8.03;;;6.67;;
15667;SDS011;7934;48.710;9.024;2022-10-10T03:24:06;13.73;;;7.00;;
15667;SDS011;7934;48.710;9.024;2022-10-10T03:26:35;9.37;;;7.07;;
15667;SDS011;7934;48.710;9.024;2022-10-10T03:29:02;7.87;;;6.97;;
15667;SDS011;7934;48.710;9.024;2022-10-10T03:31:30;7.93;;;7.07;;
15667;SDS011;7934;48.710;9.024;2022-10-10T03:33:57;11.30;;;6.90;;
15667;SDS011;7934;48.710;9.024;2022-10-10T03:36:25;10.50;;;7.87;;
15667;SDS011;7934;48.710;9.024;2022-10-10T03:38:52;9.73;;;6.03;;
15667;SDS011;7934;48.710;9.024;2022-10-10T03:41:19;8.07;;;6.37;;
15667;SDS011;7934;48.710;9.024;2022-10-10T03:43:48;10.93;;;6.43;;
15667;SDS011;7934;48.710;9.024;2022-10-10T03:46:15;9.47;;;6.77;;
15667;SDS011;7934;48.710;9.024;2022-10-10T03:48:42;10.10;;;6.30;;
15667;SDS011;7934;48.710;9.024;2022-10-10T03:51:09;11.13;;;6.70;;
15667;SDS011;7934;48.710;9.024;2022-10-10T03:53:37;12.47;;;6.87;;
15667;SDS011;7934;48.710;9.024;2022-10-10T03:56:04;10.67;;;6.20;;
15667;SDS011;7934;48.710;9.024;2022-10-10T03:58:32;10.10;;;6.43;;
15667;SDS011;7934;48.710;9.024;2022-10-10T04:01:01;8.37;;;6.40;;
15667;SDS011;7934;48.710;9.024;2022-10-10T04:03:29;8.60;;;6.17;;
15667;SDS011;7934;48.710;9.024;2022-10-10T04:05:56;6.90;;;6.30;;
15667;SDS011;7934;48.710;9.024;2022-10-10T04:08:24;8.57;;;6.57;;
15667;SDS011;7934;48.710;9.024;2022-10-10T04:10:52;6.90;;;6.20;;
15667;SDS011;7934;48.710;9.024;2022-10-10T04:13:20;9.83;;;6.77;;
15667;SDS011;7934;48.710;9.024;2022-10-10T04:15:49;11.07;;;6.67;;
15667;SDS011;7934;48.710;9.024;2022-10-10T04:18:18;10.90;;;7.63;;
15667;SDS011;7934;48.710;9.024;2022-10-10T04:20:46;11.03;;;6.87;;
15667;SDS011;7934;48.710;9.024;2022-10-10T04:23:13;9.77;;;7.50;;
15667;SDS011;7934;48.710;9.024;2022-10-10T04:25:40;11.50;;;7.17;;
15667;SDS011;7934;48.710;9.024;2022-10-10T04:28:09;10.30;;;7.20;;
15667;SDS011;7934;48.710;9.024;2022-10-10T04:30:36;7.80;;;7.10;;
15667;SDS011;7934;48.710;9.024;2022-10-10T04:33:04;15.50;;;7.50;;
15667;SDS011;7934;48.710;9.024;2022-10-10T04:35:32;10.03;;;7.47;;
15667;SDS011;7934;48.710;9.024;2022-10-10T04:37:59;8.03;;;7.23;;
15667;SDS011;7934;48.710;9.024;2022-10-10T04:40:30;12.90;;;7.23;;
15667;SDS011;7934;48.710;9.024;2022-10-10T04:42:57;11.13;;;8.47;;
15667;SDS011;7934;48.710;9.024;2022-10-10T04:45:24;15.57;;;8.80;;
15667;SDS011;7934;48.710;9.024;2022-10-10T04:47:52;8.70;;;7.90;;
15667;SDS011;7934;48.710;9.024;2022-10-10T04:50:19;10.57;;;7.57;;
15667;SDS011;7934;48.710;9.024;2022-10-10T04:52:48;12.23;;;8.87;;
15667;SDS011;7934;48.710;9.024;2022-10-10T04:55:15;11.17;;;7.97;;
15667;SDS011;7934;48.710;9.024;2022-10-10T04:57:42;11.90;;;7.70;;
15667;SDS011;7934;48.710;9.024;2022-10-10T05:00:10;10.20;;;8.07;;
15667;SDS011;7934;48.710;9.024;2022-10-10T05:02:37;9.97;;;7.53;;
15667;SDS011;7934;48.710;9.024;2022-10-10T05:05:05;9.10;;;7.00;;
15667;SDS011;7934;48.710;9.024;2022-10-10T05:07:33;9.27;;;8.27;;
15667;SDS011;7934;48.710;9.024;2022-10-10T05:10:02;14.33;;;7.63;;
15667;SDS011;7934;48.710;9.024;2022-10-10T05:12:30;11.80;;;7.47;;
15667;SDS011;7934;48.710;9.024;2022-10-10T05:14:59;13.37;;;7.80;;
15667;SDS011;7934;48.710;9.024;2022-10-10T05:17:26;13.70;;;8.90;;
15667;SDS011;7934;48.710;9.024;2022-10-10T05:19:53;12.77;;;8.30;;
15667;SDS011;7934;48.710;9.024;2022-10-10T05:22:20;9.67;;;7.27;;
15667;SDS011;7934;48.710;9.024;2022-10-10T05:24:48;12.00;;;8.03;;
15667;SDS011;7934;48.710;9.024;2022-10-10T05:27:16;12.20;;;7.60;;
15667;SDS011;7934;48.710;9.024;2022-10-10T05:29:46;8.47;;;6.87;;
15667;SDS011;7934;48.710;9.024;2022-10-10T05:32:14;9.60;;;7.37;;
15667;SDS011;7934;48.710;9.024;2022-10-10T05:34:41;9.40;;;7.27;;
15667;SDS011;7934;48.710;9.024;2022-10-10T05:37:08;12.13;;;7.77;;
15667;SDS011;7934;48.710;9.024;2022-10-10T05:39:36;10.60;;;7.63;;
15667;SDS011;7934;48.710;9.024;2022-10-10T05:42:03;12.50;;;8.83;;
15667;SDS011;7934;48.710;9.024;2022-10-10T05:44:31;13.00;;;7.70;;
15667;SDS011;7934;48.710;9.024;2022-10-10T05:46:59;11.83;;;9.03;;
15667;SDS011;7934;48.710;9.024;2022-10-10T05:49:28;10.57;;;9.37;;
15667;SDS011;7934;48.710;9.024;2022-10-10T05:51:56;11.10;;;8.87;;
15667;SDS011;7934;48.710;9.024;2022-10-10T05:54:23;11.10;;;8.63;;
15667;SDS011;7934;48.710;9.024;2022-10-10T05:56:50;12.57;;;8.63;;
15667;SDS011;7934;48.710;9.024;2022-10-10T05:59:18;11.57;;;8.40;;
15667;SDS011;7934;48.710;9.024;2022-10-10T06:01:46;10.40;;;8.57;;
15667;SDS011;7934;48.710;9.024;2022-10-10T06:04:14;15.13;;;7.70;;
15667;SDS011;7934;48.710;9.024;2022-10-10T06:06:41;11.93;;;8.87;;
15667;SDS011;7934;48.710;9.024;2022-10-10T06:09:09;12.93;;;7.97;;
15667;SDS011;7934;48.710;9.024;2022-10-10T06:11:36;12.50;;;8.87;;
15667;SDS011;7934;48.710;9.024;2022-10-10T06:14:03;10.27;;;7.87;;
15667;SDS011;7934;48.710;9.024;2022-10-10T06:16:30;10.13;;;7.97;;
15667;SDS011;7934;48.710;9.024;2022-10-10T06:19:00;14.53;;;8.23;;
15667;SDS011;7934;48.710;9.024;2022-10-10T06:21:28;10.43;;;7.57;;
15667;SDS011;7934;48.710;9.024;2022-10-10T06:23:55;12.07;;;8.07;;
15667;SDS011;7934;48.710;9.024;2022-10-10T06:26:23;13.73;;;7.33;;
15667;SDS011;7934;48.710;9.024;2022-10-10T06:28:51;8.13;;;6.90;;
15667;SDS011;7934;48.710;9.024;2022-10-10T06:31:18;12.33;;;7.47;;
15667;SDS011;7934;48.710;9.024;2022-10-10T06:33:48;9.10;;;7.73;;
15667;SDS011;7934;48.710;9.024;2022-10-10T06:36:18;10.73;;;8.00;;
15667;SDS011;7934;48.710;9.024;2022-10-10T06:38:45;10.95;;;7.53;;
15667;SDS011;7934;48.710;9.024;2022-10-10T06:41:13;14.73;;;7.60;;
15667;SDS011;7934;48.710;9.024;2022-10-10T06:43:40;13.00;;;7.67;;
15667;SDS011;7934;48.710;9.024;2022-10-10T06:46:08;13.27;;;7.30;;
15667;SDS011;7934;48.710;9.024;2022-10-10T06:48:37;9.33;;;7.23;;
15667;SDS011;7934;48.710;9.024;2022-10-10T06:51:06;13.03;;;6.60;;
15667;SDS011;7934;48.710;9.024;2022-10-10T06:53:37;10.43;;;6.77;;
15667;SDS011;7934;48.710;9.024;2022-10-10T06:56:08;7.33;;;6.63;;
15667;SDS011;7934;48.710;9.024;2022-10-10T06:58:41;13.57;;;7.10;;
15667;SDS011;7934;48.710;9.024;2022-10-10T07:01:08;8.83;;;6.40;;
15667;SDS011;7934;48.710;9.024;2022-10-10T07:03:36;11.20;;;6.20;;
15667;SDS011;7934;48.710;9.024;2022-10-10T07:06:04;10.63;;;6.37;;
15667;SDS011;7934;48.710;9.024;2022-10-10T07:08:34;7.47;;;6.83;;
15667;SDS011;7934;48.710;9.024;2022-10-10T07:11:04;7.65;;;6.90;;
15667;SDS011;7934;48.710;9.024;2022-10-10T07:13:32;12.50;;;6.47;;
15667;SDS011;7934;48.710;9.024;2022-10-10T07:16:00;8.50;;;6.60;;
15667;SDS011;7934;48.710;9.024;2022-10-10T07:18:28;9.60;;;5.67;;
15667;SDS011;7934;48.710;9.024;2022-10-10T07:20:55;11.67;;;5.93;;
15667;SDS011;7934;48.710;9.024;2022-10-10T07:23:25;12.03;;;6.80;;
15667;SDS011;7934;48.710;9.024;2022-10-10T07:25:57;7.50;;;6.00;;
15667;SDS011;7934;48.710;9.024;2022-10-10T07:28:26;10.50;;;6.20;;
15667;SDS011;7934;48.710;9.024;2022-10-10T07:30:57;7.40;;;5.73;;
15667;SDS011;7934;48.710;9.024;2022-10-10T07:33:35;7.33;;;6.07;;
15667;SDS011;7934;48.710;9.024;2022-10-10T07:36:06;14.20;;;5.97;;
15667;SDS011;7934;48.710;9.024;2022-10-10T07:38:34;8.37;;;5.97;;
15667;SDS011;7934;48.710;9.024;2022-10-10T07:41:03;9.07;;;6.20;;
15667;SDS011;7934;48.710;9.024;2022-10-10T07:43:32;10.00;;;6.57;;
15667;SDS011;7934;48.710;9.024;2022-10-10T07:45:59;13.50;;;6.33;;
15667;SDS011;7934;48.710;9.024;2022-10-10T07:48:26;11.73;;;5.77;;
15667;SDS011;7934;48.710;9.024;2022-10-10T07:50:54;10.13;;;5.40;;
15667;SDS011;7934;48.710;9.024;2022-10-10T07:53:22;8.23;;;6.27;;
15667;SDS011;7934;48.710;9.024;2022-10-10T07:55:49;6.17;;;5.57;;
15667;SDS011;7934;48.710;9.024;2022-10-10T07:58:16;7.60;;;4.93;;
15667;SDS011;7934;48.710;9.024;2022-10-10T08:00:45;5.47;;;4.97;;
15667;SDS011;7934;48.710;9.024;2022-10-10T08:03:13;5.70;;;4.90;;
15667;SDS011;7934;48.710;9.024;2022-10-10T08:05:40;5.77;;;4.70;;
15667;SDS011;7934;48.710;9.024;2022-10-10T08:08:22;7.43;;;4.40;;
15667;SDS011;7934;48.710;9.024;2022-10-10T08:10:50;5.40;;;4.43;;
15667;SDS011;7934;48.710;9.024;2022-10-10T08:13:28;6.87;;;4.40;;
15667;SDS011;7934;48.710;9.024;2022-10-10T08:16:00;6.70;;;3.73;;
15667;SDS011;7934;48.710;9.024;2022-10-10T08:18:27;5.93;;;4.60;;
15667;SDS011;7934;48.710;9.024;2022-10-10T08:20:58;6.33;;;4.00;;
15667;SDS011;7934;48.710;9.024;2022-10-10T08:23:26;6.13;;;4.60;;
15667;SDS011;7934;48.710;9.024;2022-10-10T08:25:53;6.90;;;4.60;;
15667;SDS011;7934;48.710;9.024;2022-10-10T08:28:24;5.60;;;4.10;;
15667;SDS011;7934;48.710;9.024;2022-10-10T08:30:52;4.57;;;3.73;;
15667;SDS011;7934;48.710;9.024;2022-10-10T08:33:24;6.77;;;3.90;;
15667;SDS011;7934;48.710;9.024;2022-10-10T08:35:51;10.30;;;4.10;;
15667;SDS011;7934;48.710;9.024;2022-10-10T08:38:19;4.60;;;3.60;;
15667;SDS011;7934;48.710;9.024;2022-10-10T08:40:47;3.30;;;3.00;;
15667;SDS011;7934;48.710;9.024;2022-10-10T08:43:17;4.20;;;3.40;;
15667;SDS011;7934;48.710;9.024;2022-10-10T08:45:46;4.67;;;3.40;;
15667;SDS011;7934;48.710;9.024;2022-10-10T08:48:14;5.30;;;3.50;;
15667;SDS011;7934;48.710;9.024;2022-10-10T08:50:43;6.40;;;3.57;;
15667;SDS011;7934;48.710;9.024;2022-10-10T08:53:13;5.53;;;3.20;;
15667;SDS011;7934;48.710;9.024;2022-10-10T08:55:46;5.45;;;3.33;;
15667;SDS011;7934;48.710;9.024;2022-10-10T08:58:15;5.00;;;3.13;;
15667;SDS011;7934;48.710;9.024;2022-10-10T09:00:46;3.20;;;2.87;;
15667;SDS011;7934;48.710;9.024;2022-10-10T09:03:18;5.00;;;3.27;;
15667;SDS011;7934;48.710;9.024;2022-10-10T09:05:48;4.07;;;3.77;;
15667;SDS011;7934;48.710;9.024;2022-10-10T09:08:21;7.10;;;3.73;;
15667;SDS011;7934;48.710;9.024;2022-10-10T09:10:52;6.97;;;3.70;;
15667;SDS011;7934;48.710;9.024;2022-10-10T09:13:24;5.63;;;2.90;;
15667;SDS011;7934;48.710;9.024;2022-10-10T09:15:54;7.53;;;3.40;;
15667;SDS011;7934;48.710;9.024;2022-10-10T09:18:26;4.67;;;3.00;;
15667;SDS011;7934;48.710;9.024;2022-10-10T09:21:01;3.43;;;3.13;;
15667;SDS011;7934;48.710;9.024;2022-10-10T09:23:33;8.00;;;3.53;;
15667;SDS011;7934;48.710;9.024;2022-10-10T09:26:02;5.67;;;3.20;;
15667;SDS011;7934;48.710;9.024;2022-10-10T09:28:34;7.03;;;3.53;;
15667;SDS011;7934;48.710;9.024;2022-10-10T09:31:02;3.53;;;2.63;;
15667;SDS011;7934;48.710;9.024;2022-10-10T09:33:34;5.90;;;3.07;;
15667;SDS011;7934;48.710;9.024;2022-10-10T09:36:05;4.00;;;2.77;;
15667;SDS011;7934;48.710;9.024;2022-10-10T09:38:40;3.40;;;2.43;;
15667;SDS011;7934;48.710;9.024;2022-10-10T09:41:12;4.53;;;2.60;;
15667;SDS011;7934;48.710;9.024;2022-10-10T09:43:54;3.90;;;2.97;;
15667;SDS011;7934;48.710;9.024;2022-10-10T09:46:23;2.90;;;2.10;;
15667;SDS011;7934;48.710;9.024;2022-10-10T09:49:01;8.70;;;2.60;;
15667;SDS011;7934;48.710;9.024;2022-10-10T09:51:35;3.00;;;2.70;;
15667;SDS011;7934;48.710;9.024;2022-10-10T09:54:16;3.43;;;2.63;;
15667;SDS011;7934;48.710;9.024;2022-10-10T09:56:47;3.33;;;2.70;;
15667;SDS011;7934;48.710;9.024;2022-10-10T09:59:35;3.53;;;2.53;;
15667;SDS011;7934;48.710;9.024;2022-10-10T10:02:22;3.45;;;2.72;;
15667;SDS011;7934;48.710;9.024;2022-10-10T10:04:54;4.50;;;2.60;;
15667;SDS011;7934;48.710;9.024;2022-10-10T10:07:27;4.70;;;2.60;;
15667;SDS011;7934;48.710;9.024;2022-10-10T10:09:55;4.87;;;2.60;;
15667;SDS011;7934;48.710;9.024;2022-10-10T10:12:24;5.53;;;2.30;;
15667;SDS011;7934;48.710;9.024;2022-10-10T10:14:56;4.27;;;2.20;;
15667;SDS011;7934;48.710;9.024;2022-10-10T10:17:24;3.70;;;2.17;;
15667;SDS011;7934;48.710;9.024;2022-10-10T10:19:52;6.67;;;2.30;;
15667;SDS011;7934;48.710;9.024;2022-10-10T10:22:31;5.60;;;2.37;;
15667;SDS011;7934;48.710;9.024;2022-10-10T10:25:00;2.60;;;2.40;;
15667;SDS011;7934;48.710;9.024;2022-10-10T10:30:52;2.93;;;2.23;;
15667;SDS011;7934;48.710;9.024;2022-10-10T10:33:30;10.13;;;2.83;;
15667;SDS011;7934;48.710;9.024;2022-10-10T10:36:14;4.67;;;2.63;;
15667;SDS011;7934;48.710;9.024;2022-10-10T10:38:45;5.57;;;2.13;;
15667;SDS011;7934;48.710;9.024;2022-10-10T10:41:17;5.33;;;2.83;;
15667;SDS011;7934;48.710;9.024;2022-10-10T10:43:49;8.20;;;3.00;;
15667;SDS011;7934;48.710;9.024;2022-10-10T10:46:28;4.60;;;1.90;;
15667;SDS011;7934;48.710;9.024;2022-10-10T10:48:59;6.00;;;2.07;;
15667;SDS011;7934;48.710;9.024;2022-10-10T10:54:21;8.27;;;2.30;;
15667;SDS011;7934;48.710;9.024;2022-10-10T10:56:52;10.93;;;2.53;;
15667;SDS011;7934;48.710;9.024;2022-10-10T10:59:26;6.17;;;2.53;;
15667;SDS011;7934;48.710;9.024;2022-10-10T11:01:57;3.90;;;2.23;;
15667;SDS011;7934;48.710;9.024;2022-10-10T11:07:13;8.00;;;3.30;;
15667;SDS011;7934;48.710;9.024;2022-10-10T11:09:43;5.83;;;2.40;;
15667;SDS011;7934;48.710;9.024;2022-10-10T11:12:14;3.60;;;2.37;;
15667;SDS011;7934;48.710;9.024;2022-10-10T11:14:51;5.37;;;2.40;;
15667;SDS011;7934;48.710;9.024;2022-10-10T11:17:23;8.27;;;3.07;;
15667;SDS011;7934;48.710;9.024;2022-10-10T11:19:53;7.77;;;2.63;;
15667;SDS011;7934;48.710;9.024;2022-10-10T11:22:23;6.00;;;2.53;;
15667;SDS011;7934;48.710;9.024;2022-10-10T11:24:52;9.07;;;2.67;;
15667;SDS011;7934;48.710;9.024;2022-10-10T11:27:22;3.87;;;2.47;;
15667;SDS011;7934;48.710;9.024;2022-10-10T11:29:55;4.30;;;2.87;;
15667;SDS011;7934;48.710;9.024;2022-10-10T11:32:29;10.00;;;2.60;;
15667;SDS011;7934;48.710;9.024;2022-10-10T11:35:04;5.07;;;2.77;;
15667;SDS011;7934;48.710;9.024;2022-10-10T11:37:34;9.80;;;2.70;;
15667;SDS011;7934;48.710;9.024;2022-10-10T11:40:04;4.83;;;2.70;;
15667;SDS011;7934;48.710;9.024;2022-10-10T11:42:31;7.53;;;2.60;;
15667;SDS011;7934;48.710;9.024;2022-10-10T11:45:03;5.17;;;2.87;;
15667;SDS011;7934;48.710;9.024;2022-10-10T11:47:38;6.50;;;2.73;;
15667;SDS011;7934;48.710;9.024;2022-10-10T11:50:10;9.73;;;2.70;;
15667;SDS011;7934;48.710;9.024;2022-10-10T11:52:49;9.83;;;2.97;;
15667;SDS011;7934;48.710;9.024;2022-10-10T11:55:19;9.27;;;2.83;;
15667;SDS011;7934;48.710;9.024;2022-10-10T12:00:41;10.67;;;2.50;;
15667;SDS011;7934;48.710;9.024;2022-10-10T12:03:24;12.67;;;2.47;;
15667;SDS011;7934;48.710;9.024;2022-10-10T12:06:11;7.73;;;2.23;;
15667;SDS011;7934;48.710;9.024;2022-10-10T12:08:44;7.53;;;2.97;;
15667;SDS011;7934;48.710;9.024;2022-10-10T12:11:23;7.47;;;2.90;;
15667;SDS011;7934;48.710;9.024;2022-10-10T12:14:01;11.23;;;3.00;;
15667;SDS011;7934;48.710;9.024;2022-10-10T12:16:30;8.90;;;2.70;;
15667;SDS011;7934;48.710;9.024;2022-10-10T12:19:04;7.83;;;2.80;;
15667;SDS011;7934;48.710;9.024;2022-10-10T12:21:53;5.73;;;2.27;;
15667;SDS011;7934;48.710;9.024;2022-10-10T12:27:27;9.40;;;2.73;;
15667;SDS011;7934;48.710;9.024;2022-10-10T12:32:54;10.37;;;3.43;;
15667;SDS011;7934;48.710;9.024;2022-10-10T12:38:50;9.50;;;3.03;;
15667;SDS011;7934;48.710;9.024;2022-10-10T12:44:25;10.37;;;3.03;;
15667;SDS011;7934;48.710;9.024;2022-10-10T12:50:00;7.20;;;2.70;;
15667;SDS011;7934;48.710;9.024;2022-10-10T12:52:29;8.47;;;3.00;;
15667;SDS011;7934;48.710;9.024;2022-10-10T12:55:00;9.80;;;3.20;;
15667;SDS011;7934;48.710;9.024;2022-10-10T12:57:42;8.00;;;3.07;;
15667;SDS011;7934;48.710;9.024;2022-10-10T13:00:19;12.80;;;2.80;;
15667;SDS011;7934;48.710;9.024;2022-10-10T13:02:49;6.17;;;2.60;;
15667;SDS011;7934;48.710;9.024;2022-10-10T13:05:27;11.33;;;3.33;;
15667;SDS011;7934;48.710;9.024;2022-10-10T13:07:57;9.77;;;3.30;;
15667;SDS011;7934;48.710;9.024;2022-10-10T13:10:30;11.90;;;2.97;;
15667;SDS011;7934;48.710;9.024;2022-10-10T13:12:59;8.67;;;2.93;;
15667;SDS011;7934;48.710;9.024;2022-10-10T13:15:30;17.07;;;3.00;;
15667;SDS011;7934;48.710;9.024;2022-10-10T13:18:02;12.37;;;3.13;;
15667;SDS011;7934;48.710;9.024;2022-10-10T13:20:38;14.67;;;3.33;;
15667;SDS011;7934;48.710;9.024;2022-10-10T13:23:15;13.50;;;2.97;;
15667;SDS011;7934;48.710;9.024;2022-10-10T13:25:48;18.83;;;3.33;;
15667;SDS011;7934;48.710;9.024;2022-10-10T13:28:22;18.10;;;3.67;;
15667;SDS011;7934;48.710;9.024;2022-10-10T13:31:01;13.37;;;3.30;;
15667;SDS011;7934;48.710;9.024;2022-10-10T13:33:46;12.27;;;3.57;;
15667;SDS011;7934;48.710;9.024;2022-10-10T13:36:26;15.87;;;3.23;;
15667;SDS011;7934;48.710;9.024;2022-10-10T13:38:56;20.90;;;3.47;;
15667;SDS011;7934;48.710;9.024;2022-10-10T13:41:24;20.17;;;3.23;;
15667;SDS011;7934;48.710;9.024;2022-10-10T13:49:54;16.17;;;3.30;;
15667;SDS011;7934;48.710;9.024;2022-10-10T14:01:31;18.77;;;4.07;;
15667;SDS011;7934;48.710;9.024;2022-10-10T14:09:59;9.67;;;3.13;;
15667;SDS011;7934;48.710;9.024;2022-10-10T14:12:29;7.83;;;3.23;;
15667;SDS011;7934;48.710;9.024;2022-10-10T14:14:59;14.67;;;3.13;;
15667;SDS011;7934;48.710;9.024;2022-10-10T14:17:29;10.70;;;2.80;;
15667;SDS011;7934;48.710;9.024;2022-10-10T14:20:04;7.70;;;2.97;;
15667;SDS011;7934;48.710;9.024;2022-10-10T14:22:33;15.33;;;3.53;;
15667;SDS011;7934;48.710;9.024;2022-10-10T14:25:05;14.47;;;3.30;;
15667;SDS011;7934;48.710;9.024;2022-10-10T14:27:32;10.87;;;3.03;;
15667;SDS011;7934;48.710;9.024;2022-10-10T14:30:05;6.93;;;2.80;;
15667;SDS011;7934;48.710;9.024;2022-10-10T14:32:46;10.77;;;3.17;;
15667;SDS011;7934;48.710;9.024;2022-10-10T14:35:27;16.37;;;3.90;;
15667;SDS011;7934;48.710;9.024;2022-10-10T14:38:00;13.90;;;3.50;;
15667;SDS011;7934;48.710;9.024;2022-10-10T14:40:31;17.37;;;4.50;;
15667;SDS011;7934;48.710;9.024;2022-10-10T14:43:02;7.47;;;3.13;;
15667;SDS011;7934;48.710;9.024;2022-10-10T14:45:33;11.50;;;3.30;;
15667;SDS011;7934;48.710;9.024;2022-10-10T14:48:10;10.10;;;3.33;;
15667;SDS011;7934;48.710;9.024;2022-10-10T14:50:39;10.37;;;2.80;;
15667;SDS011;7934;48.710;9.024;2022-10-10T14:53:11;11.70;;;3.33;;
15667;SDS011;7934;48.710;9.024;2022-10-10T14:55:45;9.57;;;3.10;;
15667;SDS011;7934;48.710;9.024;2022-10-10T14:58:13;6.43;;;2.63;;
15667;SDS011;7934;48.710;9.024;2022-10-10T15:00:41;6.80;;;3.17;;
15667;SDS011;7934;48.710;9.024;2022-10-10T15:03:08;11.57;;;3.57;;
15667;SDS011;7934;48.710;9.024;2022-10-10T15:05:36;8.77;;;3.00;;
15667;SDS011;7934;48.710;9.024;2022-10-10T15:08:07;13.27;;;3.00;;
15667;SDS011;7934;48.710;9.024;2022-10-10T15:10:52;15.20;;;3.67;;
15667;SDS011;7934;48.710;9.024;2022-10-10T15:13:21;11.30;;;3.20;;
15667;SDS011;7934;48.710;9.024;2022-10-10T15:15:48;10.63;;;3.50;;
15667;SDS011;7934;48.710;9.024;2022-10-10T15:18:15;7.77;;;2.70;;
15667;SDS011;7934;48.710;9.024;2022-10-10T15:20:43;11.97;;;3.07;;
15667;SDS011;7934;48.710;9.024;2022-10-10T15:23:10;14.50;;;3.13;;
15667;SDS011;7934;48.710;9.024;2022-10-10T15:25:40;13.70;;;3.80;;
15667;SDS011;7934;48.710;9.024;2022-10-10T15:28:16;11.47;;;3.27;;
15667;SDS011;7934;48.710;9.024;2022-10-10T15:30:44;18.27;;;3.17;;
15667;SDS011;7934;48.710;9.024;2022-10-10T15:33:13;13.90;;;3.97;;
15667;SDS011;7934;48.710;9.024;2022-10-10T15:35:41;9.57;;;3.30;;
15667;SDS011;7934;48.710;9.024;2022-10-10T15:38:09;12.43;;;3.63;;
15667;SDS011;7934;48.710;9.024;2022-10-10T15:40:36;13.17;;;3.17;;
15667;SDS011;7934;48.710;9.024;2022-10-10T15:43:04;11.57;;;3.70;;
15667;SDS011;7934;48.710;9.024;2022-10-10T15:45:42;20.87;;;3.90;;
15667;SDS011;7934;48.710;9.024;2022-10-10T15:48:10;9.43;;;3.07;;
15667;SDS011;7934;48.710;9.024;2022-10-10T15:50:40;10.07;;;3.13;;
15667;SDS011;7934;48.710;9.024;2022-10-10T15:53:07;13.27;;;3.20;;
15667;SDS011;7934;48.710;9.024;2022-10-10T15:55:39;11.27;;;3.03;;
15667;SDS011;7934;48.710;9.024;2022-10-10T15:58:07;7.23;;;2.77;;
15667;SDS011;7934;48.710;9.024;2022-10-10T16:00:38;13.37;;;3.10;;
15667;SDS011;7934;48.710;9.024;2022-10-10T16:03:07;9.77;;;3.50;;
15667;SDS011;7934;48.710;9.024;2022-10-10T16:05:37;17.20;;;4.63;;